createdAt,value
2024-03-16T00:05:00.976Z,101168.06
2024-03-16T00:15:04.076Z,101170.91
2024-03-16T00:25:07.931Z,101172.56
2024-03-16T00:35:11.454Z,101173.84
2024-03-16T00:45:14.526Z,101175.47
2024-03-16T00:55:18.207Z,101178.25
2024-03-16T01:05:21.215Z,101180.31
2024-03-16T01:15:24.324Z,101182.44
2024-03-16T01:25:27.670Z,101183.16
2024-03-16T01:35:30.445Z,101184.09
2024-03-16T01:45:33.563Z,101186.72
2024-03-16T01:55:36.475Z,101189.28
2024-03-16T02:05:39.573Z,101191.50
2024-03-16T02:15:42.482Z,101192.78
2024-03-16T02:25:45.662Z,101191.56
2024-03-16T02:35:48.861Z,101194.00
2024-03-16T02:45:51.795Z,101195.69
2024-03-16T02:55:55.065Z,101195.53
2024-03-16T03:05:57.933Z,101197.34
2024-03-16T03:16:00.809Z,101198.94
2024-03-16T03:26:03.827Z,101200.81
2024-03-16T03:36:07.273Z,101202.69
2024-03-16T03:46:14.900Z,101205.03
2024-03-16T03:56:17.759Z,101207.69
2024-03-16T04:06:20.598Z,101210.25
2024-03-16T04:16:23.413Z,101212.78
2024-03-16T04:26:26.738Z,101215.44
2024-03-16T04:36:29.668Z,101218.28
2024-03-16T04:46:34.873Z,101221.00
2024-03-16T04:56:38.332Z,101223.44
2024-03-16T05:06:42.119Z,101223.34
2024-03-16T05:16:45.076Z,101225.66
2024-03-16T05:26:48.829Z,101228.59
2024-03-16T05:36:51.858Z,101231.56
2024-03-16T05:46:54.662Z,101234.31
2024-03-16T05:56:57.563Z,101236.94
2024-03-16T06:07:00.759Z,101239.69
2024-03-16T06:17:03.754Z,101240.66
2024-03-16T06:27:07.438Z,101241.63
2024-03-16T06:37:10.532Z,101244.97
2024-03-16T06:47:13.539Z,101247.75
2024-03-16T06:57:16.590Z,101250.78
2024-03-16T07:07:19.482Z,101252.44
2024-03-16T07:17:24.559Z,101251.81
2024-03-16T07:27:27.445Z,101253.50
2024-03-16T07:37:30.815Z,101254.75
2024-03-16T07:47:33.761Z,101256.31
2024-03-16T07:57:36.703Z,101256.50
2024-03-16T08:07:40.807Z,101257.09
2024-03-16T08:17:43.827Z,101257.66
2024-03-16T08:27:46.864Z,101259.06
2024-03-16T08:37:50.226Z,101259.75
2024-03-16T08:47:53.407Z,101257.63
2024-03-16T08:57:56.705Z,101258.00
2024-03-16T09:07:59.863Z,101256.78
2024-03-16T09:18:04.522Z,101256.56
2024-03-16T09:28:09.456Z,101257.47
2024-03-16T09:38:13.792Z,101257.47
